createdAt,value
2023-04-27T00:01:14.593Z,6.80
2023-04-27T00:03:41.946Z,6.80
2023-04-27T00:06:09.922Z,6.80
2023-04-27T00:08:36.800Z,6.80
2023-04-27T00:11:04.129Z,6.70
2023-04-27T00:13:31.131Z,6.70
2023-04-27T00:16:01.029Z,6.70
2023-04-27T00:18:27.967Z,6.70
2023-04-27T00:20:54.796Z,6.70
2023-04-27T00:23:21.866Z,6.70
2023-04-27T00:25:48.594Z,6.60
2023-04-27T00:28:15.533Z,6.60
2023-04-27T00:30:42.403Z,6.70
2023-04-27T00:33:09.155Z,6.70
2023-04-27T00:35:35.969Z,6.70
2023-04-27T00:38:03.216Z,6.70
2023-04-27T00:40:30.026Z,6.70
2023-04-27T00:42:56.730Z,6.70
2023-04-27T00:45:24.913Z,6.70
2023-04-27T00:47:51.854Z,6.70
2023-04-27T00:50:20.225Z,6.80
2023-04-27T00:52:47.162Z,6.70
2023-04-27T00:55:15.037Z,6.80
2023-04-27T00:57:42.001Z,6.80
2023-04-27T01:00:11.968Z,6.80
2023-04-27T01:02:39.255Z,6.80
2023-04-27T01:05:07.270Z,6.70
2023-04-27T01:07:36.789Z,6.70
2023-04-27T01:10:06.007Z,6.70
2023-04-27T01:12:33.274Z,6.70
2023-04-27T01:15:00.053Z,6.70
2023-04-27T01:17:27.026Z,6.70
2023-04-27T01:19:55.585Z,6.80
2023-04-27T01:22:22.646Z,6.80
2023-04-27T01:24:49.657Z,6.70
2023-04-27T01:27:16.370Z,6.80
2023-04-27T01:29:44.510Z,6.90
2023-04-27T01:32:12.661Z,6.90
2023-04-27T01:34:39.595Z,6.90
2023-04-27T01:37:06.546Z,6.90
2023-04-27T01:39:33.404Z,6.90
2023-04-27T01:42:00.846Z,6.90
2023-04-27T01:44:27.549Z,7.00
2023-04-27T01:46:54.455Z,7.00
2023-04-27T01:49:21.363Z,6.90
2023-04-27T01:51:49.131Z,6.90
2023-04-27T01:54:16.428Z,6.90
2023-04-27T01:56:43.528Z,6.90
2023-04-27T01:59:10.856Z,6.90
2023-04-27T02:01:37.717Z,6.90
2023-04-27T02:04:05.926Z,6.80
2023-04-27T02:06:32.800Z,6.80
2023-04-27T02:09:02.640Z,6.80
2023-04-27T02:11:29.611Z,6.90
2023-04-27T02:13:56.554Z,6.90
2023-04-27T02:16:30.792Z,6.90
2023-04-27T02:18:58.976Z,6.90
2023-04-27T02:21:25.793Z,6.90
2023-04-27T02:23:52.672Z,6.80
2023-04-27T02:26:20.539Z,6.90
2023-04-27T02:28:50.277Z,6.80
2023-04-27T02:31:17.744Z,6.80
2023-04-27T02:33:46.331Z,6.70
2023-04-27T02:36:13.350Z,6.70
2023-04-27T02:38:40.327Z,6.70
2023-04-27T02:41:07.276Z,6.70
2023-04-27T02:43:34.417Z,6.70
2023-04-27T02:46:04.735Z,6.70
2023-04-27T02:48:31.780Z,6.70
2023-04-27T02:50:58.726Z,6.70
2023-04-27T02:53:25.815Z,6.70
2023-04-27T02:55:52.737Z,6.70
2023-04-27T02:58:19.903Z,6.60
2023-04-27T03:00:48.647Z,6.60
2023-04-27T03:03:15.758Z,6.60
2023-04-27T03:05:42.912Z,6.60
2023-04-27T03:08:10.239Z,6.60
2023-04-27T03:10:36.980Z,6.60
2023-04-27T03:13:03.903Z,6.60
2023-04-27T03:15:30.789Z,6.60
2023-04-27T03:17:57.544Z,6.50
2023-04-27T03:20:24.506Z,6.50
2023-04-27T03:22:53.656Z,6.50
2023-04-27T03:25:21.637Z,6.40
2023-04-27T03:27:48.355Z,6.40
2023-04-27T03:30:15.256Z,6.40
2023-04-27T03:32:44.961Z,6.40
2023-04-27T03:35:13.106Z,6.30
2023-04-27T03:37:39.906Z,6.30
2023-04-27T03:40:07.556Z,6.20
2023-04-27T03:42:34.375Z,6.20
2023-04-27T03:45:01.952Z,6.20
2023-04-27T03:47:29.133Z,6.20
2023-04-27T03:49:56.509Z,6.10
2023-04-27T03:52:23.245Z,6.10
2023-04-27T03:54:50.149Z,6.10
2023-04-27T03:57:18.069Z,6.00
2023-04-27T03:59:44.764Z,6.00
2023-04-27T04:02:11.800Z,5.90
2023-04-27T04:04:39.186Z,6.00
2023-04-27T04:07:06.182Z,5.90
2023-04-27T04:09:33.838Z,5.90
2023-04-27T04:12:01.832Z,6.00
2023-04-27T04:14:29.223Z,6.00
2023-04-27T04:16:57.270Z,5.90
2023-04-27T04:19:24.090Z,5.80
2023-04-27T04:21:51.070Z,5.70
2023-04-27T04:24:19.149Z,5.70
2023-04-27T04:26:47.158Z,5.70
2023-04-27T04:29:14.109Z,5.60
2023-04-27T04:31:41.137Z,5.50
2023-04-27T04:34:10.069Z,5.40
2023-04-27T04:36:37.024Z,5.30
2023-04-27T04:39:05.289Z,5.30
2023-04-27T04:41:33.049Z,5.30
2023-04-27T04:44:00.803Z,5.20
2023-04-27T04:46:28.766Z,5.20
2023-04-27T04:48:56.917Z,5.30
2023-04-27T04:51:23.615Z,5.30
2023-04-27T04:53:50.734Z,5.30
2023-04-27T04:56:17.656Z,5.20
2023-04-27T04:58:44.392Z,5.20
2023-04-27T05:01:11.770Z,5.30
2023-04-27T05:03:38.649Z,5.30
2023-04-27T05:06:05.855Z,5.40
2023-04-27T05:08:32.848Z,5.40
2023-04-27T05:10:59.798Z,5.40
2023-04-27T05:13:27.076Z,5.50
2023-04-27T05:15:54.089Z,5.50
2023-04-27T05:18:21.087Z,5.50
2023-04-27T05:20:47.755Z,5.60
2023-04-27T05:23:14.453Z,5.50
2023-04-27T05:25:43.807Z,5.60
2023-04-27T05:28:11.103Z,5.60
2023-04-27T05:30:38.298Z,5.60
2023-04-27T05:33:05.216Z,5.60
2023-04-27T05:35:32.481Z,5.70
2023-04-27T05:37:59.197Z,5.70
2023-04-27T05:40:26.665Z,5.80
2023-04-27T05:42:53.492Z,5.90
2023-04-27T05:45:20.606Z,6.00
2023-04-27T05:47:47.633Z,6.20
2023-04-27T05:50:14.410Z,6.30
2023-04-27T05:52:41.157Z,6.40
2023-04-27T05:55:08.430Z,6.40
2023-04-27T05:57:35.166Z,6.40
2023-04-27T06:00:02.503Z,6.60
2023-04-27T06:02:39.464Z,6.60
2023-04-27T06:05:07.068Z,6.70
2023-04-27T06:07:34.123Z,6.80
2023-04-27T06:10:00.865Z,6.90
2023-04-27T06:12:27.889Z,7.00
2023-04-27T06:14:54.989Z,7.10
2023-04-27T06:17:21.968Z,7.20
2023-04-27T06:19:48.747Z,7.30
2023-04-27T06:22:15.829Z,7.20
2023-04-27T06:24:42.703Z,7.30
2023-04-27T06:27:09.577Z,7.50
2023-04-27T06:29:37.021Z,7.60
2023-04-27T06:32:06.753Z,7.80
2023-04-27T06:34:34.439Z,8.00
2023-04-27T06:37:01.242Z,7.80
2023-04-27T06:39:28.214Z,8.00
2023-04-27T06:41:54.916Z,8.20
2023-04-27T06:44:21.557Z,8.40
2023-04-27T06:46:48.432Z,8.50
2023-04-27T06:49:15.677Z,8.60
2023-04-27T06:51:43.531Z,8.70
2023-04-27T06:54:10.609Z,8.70
2023-04-27T06:56:37.502Z,8.50
2023-04-27T06:59:04.540Z,8.30
2023-04-27T07:01:31.270Z,8.40
2023-04-27T07:03:58.113Z,8.40
2023-04-27T07:06:25.930Z,8.50
2023-04-27T07:08:52.887Z,8.80
2023-04-27T07:11:19.628Z,8.90
2023-04-27T07:13:46.357Z,8.90
2023-04-27T07:16:13.694Z,8.90
2023-04-27T07:18:43.273Z,9.10
2023-04-27T07:21:10.829Z,9.00
2023-04-27T07:23:38.640Z,9.20
2023-04-27T07:26:05.994Z,9.50
2023-04-27T07:28:32.716Z,9.90
2023-04-27T07:30:59.842Z,10.00
2023-04-27T07:33:27.133Z,9.80
2023-04-27T07:35:54.546Z,9.50
2023-04-27T07:38:21.428Z,9.90
2023-04-27T07:40:48.130Z,10.10
2023-04-27T07:43:15.845Z,10.20
2023-04-27T07:45:42.805Z,10.20
2023-04-27T07:48:09.746Z,10.30
2023-04-27T07:50:36.521Z,10.30
2023-04-27T07:53:03.430Z,10.50
2023-04-27T07:55:30.126Z,10.90
2023-04-27T07:57:56.985Z,11.10
2023-04-27T08:00:25.254Z,11.20
2023-04-27T08:02:55.657Z,11.20
2023-04-27T08:05:23.177Z,10.90
2023-04-27T08:07:54.396Z,10.80
2023-04-27T08:10:22.007Z,11.00
2023-04-27T08:12:49.271Z,11.20
2023-04-27T08:15:16.528Z,11.40
2023-04-27T08:17:43.924Z,11.60
2023-04-27T08:20:13.962Z,11.80
2023-04-27T08:22:41.542Z,11.80
2023-04-27T08:25:09.043Z,12.00
2023-04-27T08:27:39.903Z,12.10
2023-04-27T08:30:07.381Z,12.20
2023-04-27T08:32:34.281Z,12.10
2023-04-27T08:35:01.167Z,11.90
2023-04-27T08:37:27.959Z,12.20
2023-04-27T08:39:54.919Z,12.10
2023-04-27T08:42:21.609Z,12.20
2023-04-27T08:44:48.298Z,12.40
2023-04-27T08:47:15.490Z,12.70
2023-04-27T08:49:42.954Z,12.80
2023-04-27T08:52:13.679Z,13.00
2023-04-27T08:54:40.526Z,13.10
2023-04-27T08:57:11.859Z,12.90
2023-04-27T08:59:39.614Z,13.10
2023-04-27T09:02:06.734Z,13.30
2023-04-27T09:04:38.604Z,13.40
2023-04-27T09:07:16.736Z,13.50
2023-04-27T09:09:44.237Z,13.60
2023-04-27T09:12:17.920Z,13.60
2023-04-27T09:14:56.056Z,13.30
2023-04-27T09:17:30.145Z,13.50
2023-04-27T09:20:12.931Z,13.70
2023-04-27T09:22:51.228Z,13.90
2023-04-27T09:25:29.188Z,14.20
2023-04-27T09:27:56.588Z,14.10
2023-04-27T09:30:23.853Z,14.50
2023-04-27T09:33:03.898Z,14.80
2023-04-27T09:35:32.344Z,14.70
2023-04-27T09:38:00.133Z,14.60
2023-04-27T09:40:29.813Z,14.60
2023-04-27T09:42:57.317Z,15.00
2023-04-27T09:45:24.867Z,15.20
2023-04-27T09:47:52.030Z,15.40
2023-04-27T09:50:19.081Z,15.10
2023-04-27T09:52:46.426Z,15.10
2023-04-27T09:55:30.978Z,15.30
2023-04-27T09:58:22.576Z,15.10
2023-04-27T10:00:59.337Z,15.40
2023-04-27T10:04:21.862Z,15.80
2023-04-27T10:07:12.952Z,15.80
2023-04-27T10:09:45.390Z,16.00
2023-04-27T10:12:28.075Z,16.00
2023-04-27T10:14:56.371Z,15.60
2023-04-27T10:17:33.438Z,15.30
2023-04-27T10:20:01.809Z,15.90
2023-04-27T10:22:44.787Z,16.40
2023-04-27T10:25:22.479Z,16.30
2023-04-27T10:27:52.225Z,16.60
2023-04-27T10:30:19.677Z,16.70
2023-04-27T10:32:57.452Z,17.10
2023-04-27T10:35:36.440Z,17.00
2023-04-27T10:38:10.514Z,16.90
2023-04-27T10:40:38.288Z,17.20
2023-04-27T10:43:16.091Z,17.20
2023-04-27T10:45:43.506Z,17.60
2023-04-27T10:48:14.263Z,17.70
2023-04-27T10:50:41.098Z,17.30
2023-04-27T10:53:08.071Z,17.40
2023-04-27T10:55:35.236Z,17.70
2023-04-27T10:58:02.223Z,17.90
2023-04-27T11:00:36.845Z,18.10
2023-04-27T11:03:16.825Z,17.70
2023-04-27T11:05:45.046Z,17.60
2023-04-27T11:08:19.245Z,18.20
2023-04-27T11:10:50.693Z,18.40
2023-04-27T11:13:18.383Z,18.70
2023-04-27T11:15:59.052Z,18.80
2023-04-27T11:18:26.984Z,18.90
2023-04-27T11:20:54.829Z,18.80
2023-04-27T11:23:30.055Z,18.60
2023-04-27T11:25:57.274Z,18.60
2023-04-27T11:28:24.348Z,18.50
2023-04-27T11:30:58.340Z,18.40
2023-04-27T11:33:25.780Z,18.40
2023-04-27T11:35:52.544Z,18.50
2023-04-27T11:38:19.420Z,17.40
2023-04-27T11:40:47.150Z,17.60
2023-04-27T11:43:14.425Z,17.90
2023-04-27T11:45:47.266Z,18.20
2023-04-27T11:48:15.705Z,18.30
2023-04-27T11:50:49.105Z,18.10
2023-04-27T11:53:18.649Z,18.60
2023-04-27T11:55:52.178Z,18.80
2023-04-27T11:58:19.478Z,18.60
2023-04-27T12:00:47.760Z,18.60
2023-04-27T12:03:14.965Z,18.60
2023-04-27T12:05:50.081Z,18.80
2023-04-27T12:08:17.601Z,19.10
2023-04-27T12:10:44.712Z,19.10
2023-04-27T12:13:12.570Z,19.40
2023-04-27T12:15:39.355Z,19.60
2023-04-27T12:18:06.691Z,19.80
2023-04-27T12:20:34.194Z,20.00
2023-04-27T12:23:00.901Z,20.10
2023-04-27T12:25:28.373Z,20.20
2023-04-27T12:27:55.324Z,20.20
2023-04-27T12:30:23.468Z,19.80
2023-04-27T12:32:50.410Z,19.30
2023-04-27T12:35:17.369Z,19.10
2023-04-27T12:37:44.293Z,19.30
2023-04-27T12:40:12.557Z,18.30
2023-04-27T12:42:39.596Z,18.60
2023-04-27T12:45:08.724Z,18.40
2023-04-27T12:50:06.111Z,17.80
2023-04-27T12:52:32.841Z,17.90
2023-04-27T12:54:59.855Z,17.90
2023-04-27T12:57:26.664Z,17.80
2023-04-27T12:59:53.687Z,17.30
2023-04-27T13:02:20.820Z,17.70
2023-04-27T13:04:47.884Z,17.80
2023-04-27T13:07:14.829Z,18.00
2023-04-27T13:09:41.819Z,18.10
2023-04-27T13:12:08.778Z,18.30
2023-04-27T13:14:35.523Z,18.50
2023-04-27T13:17:02.515Z,18.10
2023-04-27T13:19:29.316Z,18.10
2023-04-27T13:21:56.668Z,18.30
2023-04-27T13:24:24.627Z,18.30
2023-04-27T13:26:52.298Z,18.10
2023-04-27T13:29:19.218Z,17.90
2023-04-27T13:31:46.217Z,17.90
2023-04-27T13:34:13.327Z,18.00
2023-04-27T13:36:40.307Z,18.10
2023-04-27T13:39:07.868Z,18.10
2023-04-27T13:41:35.408Z,18.10
2023-04-27T13:44:02.359Z,18.00
2023-04-27T13:46:29.381Z,18.10
2023-04-27T13:48:57.114Z,18.10
2023-04-27T13:51:24.921Z,17.80
2023-04-27T13:53:51.860Z,17.70
2023-04-27T13:56:18.582Z,17.70
2023-04-27T13:58:46.368Z,17.50
2023-04-27T14:01:13.436Z,17.40
2023-04-27T14:03:42.687Z,17.20
2023-04-27T14:06:10.413Z,17.20
2023-04-27T14:08:37.120Z,17.00
2023-04-27T14:11:05.709Z,16.80
2023-04-27T14:13:32.498Z,16.60
2023-04-27T14:15:59.408Z,16.60
2023-04-27T14:18:32.282Z,16.60
2023-04-27T14:20:59.736Z,16.70
2023-04-27T14:23:26.457Z,16.60
2023-04-27T14:25:53.517Z,16.70
2023-04-27T14:28:20.449Z,16.70
2023-04-27T14:30:47.342Z,16.90
2023-04-27T14:33:14.175Z,16.90
2023-04-27T14:35:40.977Z,16.90
2023-04-27T14:38:08.756Z,17.00
2023-04-27T14:40:35.670Z,17.00
2023-04-27T14:43:02.586Z,17.00
2023-04-27T14:45:39.832Z,17.10
2023-04-27T14:48:10.956Z,17.00
2023-04-27T14:50:37.796Z,16.90
2023-04-27T14:53:04.957Z,17.00
2023-04-27T14:55:33.110Z,17.00
2023-04-27T14:58:00.218Z,17.00
2023-04-27T15:00:27.423Z,17.00
2023-04-27T15:02:55.031Z,17.00
2023-04-27T15:05:21.837Z,16.90
2023-04-27T15:07:48.570Z,16.90
2023-04-27T15:10:15.402Z,16.80
2023-04-27T15:12:42.309Z,16.80
2023-04-27T15:15:10.426Z,16.90
2023-04-27T15:17:37.734Z,17.10
2023-04-27T15:20:05.704Z,17.20
2023-04-27T15:22:32.605Z,17.20
2023-04-27T15:24:59.526Z,17.20
2023-04-27T15:27:26.578Z,17.20
2023-04-27T15:29:54.440Z,17.10
2023-04-27T15:32:24.448Z,17.10
2023-04-27T15:34:51.832Z,17.10
2023-04-27T15:37:19.339Z,17.20
2023-04-27T15:39:46.432Z,17.10
2023-04-27T15:42:13.108Z,17.10
2023-04-27T15:44:39.840Z,17.10
2023-04-27T15:47:06.650Z,17.10
2023-04-27T15:49:37.795Z,17.10
2023-04-27T15:52:12.895Z,17.10
2023-04-27T15:54:39.627Z,17.10
2023-04-27T15:57:06.780Z,17.00
2023-04-27T15:59:33.681Z,17.00
2023-04-27T16:02:00.705Z,17.00
2023-04-27T16:04:27.517Z,17.00
2023-04-27T16:06:54.260Z,17.00
2023-04-27T16:09:21.267Z,16.90
2023-04-27T16:11:48.031Z,16.90
2023-04-27T16:14:14.970Z,16.90
2023-04-27T16:16:41.952Z,16.90
2023-04-27T16:19:08.981Z,16.90
2023-04-27T16:21:35.726Z,16.90
2023-04-27T16:24:02.607Z,16.90
2023-04-27T16:26:29.463Z,16.80
2023-04-27T16:28:56.477Z,16.80
2023-04-27T16:31:23.499Z,16.80
2023-04-27T16:33:50.708Z,16.60
2023-04-27T16:36:17.607Z,16.50
2023-04-27T16:38:44.867Z,16.50
2023-04-27T16:41:11.628Z,16.60
2023-04-27T16:43:38.588Z,16.50
2023-04-27T16:46:06.462Z,16.50
2023-04-27T16:48:33.243Z,16.50
2023-04-27T16:51:00.142Z,16.70
2023-04-27T16:53:27.448Z,16.70
2023-04-27T16:55:54.153Z,16.70
2023-04-27T16:58:21.233Z,16.90
2023-04-27T17:00:47.939Z,16.90
2023-04-27T17:03:14.988Z,16.90
2023-04-27T17:05:42.813Z,16.90
2023-04-27T17:08:10.890Z,16.90
2023-04-27T17:10:38.294Z,16.90
2023-04-27T17:13:05.404Z,16.90
2023-04-27T17:15:32.246Z,16.90
2023-04-27T17:17:59.133Z,17.00
2023-04-27T17:20:26.934Z,16.90
2023-04-27T17:22:53.825Z,16.90
2023-04-27T17:25:20.513Z,16.90
2023-04-27T17:27:47.215Z,16.90
2023-04-27T17:30:14.086Z,16.80
2023-04-27T17:32:41.279Z,16.80
2023-04-27T17:35:10.372Z,16.70
2023-04-27T17:37:38.096Z,16.70
2023-04-27T17:40:09.303Z,16.80
2023-04-27T17:42:36.300Z,16.80
2023-04-27T17:45:03.129Z,16.70
2023-04-27T17:47:29.853Z,16.60
2023-04-27T17:49:56.612Z,16.50
2023-04-27T17:52:23.328Z,16.40
2023-04-27T17:54:50.074Z,16.30
2023-04-27T17:57:17.013Z,16.20
2023-04-27T17:59:43.949Z,16.20
2023-04-27T18:02:10.944Z,16.10
2023-04-27T18:04:38.999Z,16.00
2023-04-27T18:07:05.721Z,16.00
2023-04-27T18:09:33.018Z,16.00
2023-04-27T18:12:00.198Z,16.00
2023-04-27T18:14:26.851Z,15.90
2023-04-27T18:16:53.757Z,15.90
2023-04-27T18:19:20.518Z,15.80
2023-04-27T18:21:47.599Z,15.80
2023-04-27T18:24:14.503Z,15.80
2023-04-27T18:26:41.274Z,15.80
2023-04-27T18:29:08.272Z,15.70
2023-04-27T18:31:36.170Z,15.70
2023-04-27T18:34:02.873Z,15.70
2023-04-27T18:36:29.722Z,15.60
2023-04-27T18:38:58.080Z,15.60
2023-04-27T18:41:25.210Z,15.50
2023-04-27T18:43:52.353Z,15.50
2023-04-27T18:46:19.210Z,15.40
2023-04-27T18:48:46.348Z,15.40
2023-04-27T18:51:13.298Z,15.30
2023-04-27T18:53:40.728Z,15.30
2023-04-27T18:56:08.883Z,15.30
2023-04-27T18:58:36.246Z,15.30
2023-04-27T19:01:03.090Z,15.20
2023-04-27T19:03:29.937Z,15.20
2023-04-27T19:05:56.734Z,15.20
2023-04-27T19:08:23.672Z,15.20
2023-04-27T19:10:51.270Z,15.20
2023-04-27T19:13:18.185Z,15.10
2023-04-27T19:15:45.247Z,15.20
2023-04-27T19:18:12.112Z,15.10
2023-04-27T19:20:39.316Z,15.10
2023-04-27T19:23:08.107Z,15.10
2023-04-27T19:25:35.262Z,15.00
2023-04-27T19:28:02.226Z,15.00
2023-04-27T19:30:29.207Z,15.00
2023-04-27T19:32:56.208Z,15.00
2023-04-27T19:35:23.870Z,15.00
2023-04-27T19:37:51.172Z,15.00
2023-04-27T19:40:18.304Z,15.00
2023-04-27T19:42:45.683Z,15.00
2023-04-27T19:45:12.515Z,15.00
2023-04-27T19:47:39.428Z,15.00
2023-04-27T19:50:06.785Z,15.00
2023-04-27T19:52:33.527Z,14.90
2023-04-27T19:55:00.315Z,14.90
2023-04-27T19:57:27.134Z,14.90
2023-04-27T19:59:54.053Z,14.80
2023-04-27T20:02:21.414Z,14.80
2023-04-27T20:04:48.385Z,14.70
2023-04-27T20:07:16.056Z,14.70
2023-04-27T20:09:43.220Z,14.70
2023-04-27T20:12:23.712Z,14.70
2023-04-27T20:14:56.345Z,14.70
2023-04-27T20:17:25.599Z,14.60
2023-04-27T20:19:56.050Z,14.60
2023-04-27T20:22:23.216Z,14.70
2023-04-27T20:24:50.467Z,14.70
2023-04-27T20:27:17.193Z,14.70
2023-04-27T20:29:46.659Z,14.70
2023-04-27T20:32:13.681Z,14.70
2023-04-27T20:34:40.448Z,14.70
2023-04-27T20:37:07.439Z,14.60
2023-04-27T20:39:34.957Z,14.60
2023-04-27T20:42:01.899Z,14.60
2023-04-27T20:44:28.642Z,14.50
2023-04-27T20:46:55.829Z,14.40
2023-04-27T20:49:31.989Z,14.40
2023-04-27T20:52:01.592Z,14.40
2023-04-27T20:54:30.956Z,14.40
2023-04-27T20:56:57.980Z,14.30
2023-04-27T20:59:26.008Z,14.40
2023-04-27T21:01:52.692Z,14.30
2023-04-27T21:04:19.861Z,14.30
2023-04-27T21:06:47.110Z,14.30
2023-04-27T21:09:14.059Z,14.30
2023-04-27T21:11:40.899Z,14.30
2023-04-27T21:14:07.826Z,14.30
2023-04-27T21:16:34.912Z,14.30
2023-04-27T21:19:01.665Z,14.30
2023-04-27T21:21:28.364Z,14.30
2023-04-27T21:24:06.588Z,14.30
2023-04-27T21:26:34.816Z,14.30
2023-04-27T21:29:01.966Z,14.30
2023-04-27T21:31:28.714Z,14.30
2023-04-27T21:33:55.772Z,14.30
2023-04-27T21:36:22.487Z,14.30
2023-04-27T21:38:49.736Z,14.30
2023-04-27T21:41:17.408Z,14.30
2023-04-27T21:43:44.978Z,14.30
2023-04-27T21:46:12.568Z,14.30
2023-04-27T21:48:39.310Z,14.30
2023-04-27T21:51:06.377Z,14.20
2023-04-27T21:53:33.294Z,14.20
2023-04-27T21:56:00.404Z,14.20
2023-04-27T21:58:27.365Z,14.10
2023-04-27T22:00:54.126Z,14.00
2023-04-27T22:03:21.792Z,13.80
2023-04-27T22:05:48.975Z,13.70
2023-04-27T22:08:17.113Z,13.70
2023-04-27T22:10:44.818Z,13.60
2023-04-27T22:13:18.905Z,13.60
2023-04-27T22:15:46.944Z,13.60
2023-04-27T22:18:15.100Z,13.50
2023-04-27T22:20:42.611Z,13.40
2023-04-27T22:23:09.783Z,13.30
2023-04-27T22:25:37.026Z,13.30
2023-04-27T22:28:03.811Z,13.20
2023-04-27T22:30:30.768Z,13.10
2023-04-27T22:32:57.799Z,13.10
2023-04-27T22:35:27.632Z,13.10
2023-04-27T22:37:57.791Z,13.00
2023-04-27T22:40:24.888Z,13.00
2023-04-27T22:42:52.676Z,13.00
2023-04-27T22:45:19.380Z,13.00
2023-04-27T22:47:46.341Z,12.90
2023-04-27T22:50:13.655Z,12.90
2023-04-27T22:52:42.551Z,12.90
2023-04-27T22:55:10.029Z,12.90
2023-04-27T22:57:37.157Z,12.90
2023-04-27T23:00:05.429Z,12.90
2023-04-27T23:02:32.573Z,13.00
2023-04-27T23:04:59.409Z,13.00
2023-04-27T23:07:26.155Z,13.00
2023-04-27T23:09:54.962Z,13.00
2023-04-27T23:12:22.333Z,13.00
2023-04-27T23:14:49.238Z,12.90
2023-04-27T23:17:15.941Z,13.00
2023-04-27T23:19:42.719Z,13.00
2023-04-27T23:22:09.475Z,13.00
2023-04-27T23:24:36.157Z,13.00
2023-04-27T23:27:02.892Z,13.00
2023-04-27T23:29:30.622Z,13.00
2023-04-27T23:32:04.599Z,12.90
2023-04-27T23:34:34.060Z,12.90
2023-04-27T23:37:01.613Z,12.80
2023-04-27T23:39:28.516Z,12.70
2023-04-27T23:41:55.438Z,12.70
2023-04-27T23:44:22.240Z,12.70
2023-04-27T23:46:49.253Z,12.70
2023-04-27T23:49:16.215Z,12.70
2023-04-27T23:51:42.981Z,12.70
2023-04-27T23:54:09.742Z,12.50
2023-04-27T23:56:36.929Z,12.60
2023-04-27T23:59:03.663Z,12.60
